createdAt,value
2018-10-16T00:00:11.709Z,25.47
2018-10-16T00:02:39.721Z,27.07
2018-10-16T00:05:08.053Z,28.53
2018-10-16T00:07:36.316Z,32.20
2018-10-16T00:10:05.090Z,27.50
2018-10-16T00:12:33.511Z,29.17
2018-10-16T00:15:01.531Z,21.90
2018-10-16T00:17:29.514Z,27.10
2018-10-16T00:19:57.521Z,28.63
2018-10-16T00:22:25.541Z,29.80
2018-10-16T00:24:53.697Z,24.37
2018-10-16T00:27:21.689Z,22.80
2018-10-16T00:29:49.693Z,22.97
2018-10-16T00:32:17.708Z,26.77
2018-10-16T00:34:45.720Z,35.40
2018-10-16T00:37:13.748Z,21.83
2018-10-16T00:39:41.733Z,46.07
2018-10-16T00:42:09.846Z,24.23
2018-10-16T00:44:37.880Z,25.70
2018-10-16T00:47:05.877Z,32.03
2018-10-16T00:49:33.885Z,27.77
2018-10-16T00:52:01.888Z,21.20
2018-10-16T00:54:29.884Z,22.80
2018-10-16T00:56:57.913Z,20.53
2018-10-16T00:59:25.917Z,22.60
2018-10-16T01:01:53.933Z,32.27
2018-10-16T01:04:21.953Z,23.60
2018-10-16T01:06:50.086Z,24.43
2018-10-16T01:09:18.184Z,28.20
2018-10-16T01:11:46.208Z,23.00
2018-10-16T01:14:14.210Z,24.93
2018-10-16T01:16:42.312Z,24.03
2018-10-16T01:19:10.336Z,26.70
2018-10-16T01:21:38.355Z,26.23
2018-10-16T01:24:06.369Z,23.00
2018-10-16T01:26:34.383Z,27.30
2018-10-16T01:29:02.429Z,21.40
2018-10-16T01:31:30.520Z,24.03
2018-10-16T01:33:58.605Z,34.47
2018-10-16T01:36:26.608Z,21.20
2018-10-16T01:38:54.615Z,27.83
2018-10-16T01:41:22.610Z,23.57
2018-10-16T01:43:50.618Z,26.47
2018-10-16T01:46:18.630Z,23.20
2018-10-16T01:48:46.617Z,28.27
2018-10-16T01:51:14.644Z,25.67
2018-10-16T01:53:42.673Z,22.90
2018-10-16T01:56:10.694Z,25.27
2018-10-16T01:58:38.812Z,22.60
2018-10-16T02:01:06.868Z,24.70
2018-10-16T02:03:34.949Z,23.10
2018-10-16T02:06:02.961Z,24.57
2018-10-16T02:08:31.000Z,21.33
2018-10-16T02:10:59.050Z,21.77
2018-10-16T02:13:27.040Z,21.63
2018-10-16T02:15:55.058Z,26.83
2018-10-16T02:18:23.076Z,20.80
2018-10-16T02:20:51.082Z,19.97
2018-10-16T02:23:19.089Z,24.73
2018-10-16T02:25:47.087Z,21.60
2018-10-16T02:28:15.097Z,27.83
2018-10-16T02:30:43.088Z,27.13
2018-10-16T02:33:11.173Z,37.40
2018-10-16T02:35:39.277Z,25.27
2018-10-16T02:38:07.305Z,26.23
2018-10-16T02:40:35.415Z,22.37
2018-10-16T02:43:03.423Z,37.60
2018-10-16T02:45:31.412Z,28.33
2018-10-16T02:47:59.469Z,22.63
2018-10-16T02:50:27.488Z,24.30
2018-10-16T02:52:55.564Z,21.93
2018-10-16T02:55:23.587Z,26.00
2018-10-16T02:57:51.609Z,27.20
2018-10-16T03:00:19.650Z,22.07
2018-10-16T03:02:47.648Z,25.83
2018-10-16T03:05:15.684Z,25.70
2018-10-16T03:07:43.696Z,21.10
2018-10-16T03:10:11.708Z,22.53
2018-10-16T03:12:39.718Z,23.80
2018-10-16T03:15:10.577Z,22.70
2018-10-16T03:17:38.755Z,21.23
2018-10-16T03:20:07.200Z,26.50
2018-10-16T03:22:35.236Z,28.17
2018-10-16T03:25:03.226Z,30.60
2018-10-16T03:27:31.297Z,27.97
2018-10-16T03:29:59.276Z,21.43
2018-10-16T03:32:27.277Z,23.67
2018-10-16T03:34:55.276Z,23.90
2018-10-16T03:37:23.294Z,22.60
2018-10-16T03:39:51.287Z,24.00
2018-10-16T03:42:19.310Z,28.17
2018-10-16T03:44:47.316Z,23.93
2018-10-16T03:47:23.117Z,26.67
2018-10-16T03:49:51.260Z,23.60
2018-10-16T03:52:19.254Z,27.77
2018-10-16T03:54:47.260Z,28.40
2018-10-16T03:57:15.329Z,24.47
2018-10-16T03:59:43.280Z,23.93
2018-10-16T04:02:11.305Z,23.40
2018-10-16T04:04:39.309Z,22.90
2018-10-16T04:07:07.328Z,22.93
2018-10-16T04:09:35.357Z,25.80
2018-10-16T04:12:03.461Z,37.60
2018-10-16T04:14:31.479Z,36.80
2018-10-16T04:16:59.522Z,29.40
2018-10-16T04:19:27.624Z,36.33
2018-10-16T04:21:55.645Z,36.03
2018-10-16T04:24:23.629Z,28.40
2018-10-16T04:26:51.634Z,40.50
2018-10-16T04:29:19.662Z,25.80
2018-10-16T04:31:47.610Z,30.40
2018-10-16T04:34:15.586Z,29.90
2018-10-16T04:36:43.545Z,37.43
2018-10-16T04:39:13.905Z,31.00
2018-10-16T04:41:42.394Z,38.07
2018-10-16T04:44:10.377Z,30.83
2018-10-16T04:46:38.403Z,26.90
2018-10-16T04:49:06.751Z,28.57
2018-10-16T04:51:34.756Z,26.63
2018-10-16T04:54:02.765Z,32.37
2018-10-16T04:56:30.840Z,34.60
2018-10-16T04:58:58.829Z,35.83
2018-10-16T05:01:26.821Z,35.40
2018-10-16T05:03:54.847Z,35.50
2018-10-16T05:06:22.804Z,36.93
2018-10-16T05:08:50.799Z,37.03
2018-10-16T05:11:18.803Z,39.37
2018-10-16T05:13:46.922Z,46.13
2018-10-16T05:16:14.959Z,30.77
2018-10-16T05:18:42.958Z,30.83
2018-10-16T05:21:10.974Z,33.03
2018-10-16T05:23:38.965Z,35.77
2018-10-16T05:26:06.965Z,30.93
2018-10-16T05:28:34.959Z,26.40
2018-10-16T05:31:03.061Z,27.70
2018-10-16T05:33:30.948Z,29.67
2018-10-16T05:35:58.929Z,28.27
2018-10-16T05:38:26.940Z,30.27
2018-10-16T05:40:55.845Z,34.87
2018-10-16T05:43:23.949Z,37.00
2018-10-16T05:45:51.955Z,38.20
2018-10-16T05:48:19.966Z,39.20
2018-10-16T05:50:47.979Z,42.50
2018-10-16T05:53:15.995Z,29.37
2018-10-16T05:55:43.961Z,37.63
2018-10-16T05:58:11.965Z,36.57
2018-10-16T06:00:41.624Z,35.00
2018-10-16T06:03:09.973Z,37.43
2018-10-16T06:05:38.159Z,35.20
2018-10-16T06:08:06.317Z,29.53
2018-10-16T06:10:34.444Z,45.27
2018-10-16T06:13:02.416Z,37.53
2018-10-16T06:15:30.450Z,52.67
2018-10-16T06:17:58.449Z,69.37
2018-10-16T06:20:26.450Z,46.63
2018-10-16T06:22:54.465Z,36.30
2018-10-16T06:25:22.572Z,36.00
2018-10-16T06:27:50.544Z,31.77
2018-10-16T06:30:18.714Z,35.27
2018-10-16T06:32:47.049Z,31.93
2018-10-16T06:35:15.285Z,33.17
2018-10-16T06:37:43.332Z,32.37
2018-10-16T06:40:11.382Z,36.07
2018-10-16T06:42:40.560Z,61.53
2018-10-16T06:45:09.749Z,45.70
2018-10-16T06:47:38.572Z,34.43
2018-10-16T06:50:08.369Z,36.37
2018-10-16T06:52:36.371Z,41.00
2018-10-16T06:55:04.528Z,41.50
2018-10-16T06:57:32.508Z,38.87
2018-10-16T07:00:00.677Z,42.40
2018-10-16T07:02:28.785Z,37.97
2018-10-16T07:04:56.784Z,35.70
2018-10-16T07:07:24.886Z,37.87
2018-10-16T07:09:52.748Z,44.87
2018-10-16T07:12:20.774Z,52.83
2018-10-16T07:14:48.877Z,44.80
2018-10-16T07:17:16.862Z,44.60
2018-10-16T07:19:44.879Z,35.43
2018-10-16T07:22:12.857Z,42.07
2018-10-16T07:24:41.000Z,30.93
2018-10-16T07:27:08.973Z,42.43
2018-10-16T07:29:37.294Z,39.90
2018-10-16T07:32:05.789Z,40.53
2018-10-16T07:34:34.246Z,41.23
2018-10-16T07:37:02.249Z,40.43
2018-10-16T07:39:30.295Z,55.47
2018-10-16T07:41:58.277Z,48.43
2018-10-16T07:44:26.594Z,46.83
2018-10-16T07:46:54.599Z,54.63
2018-10-16T07:49:22.668Z,66.10
2018-10-16T07:51:50.670Z,55.43
2018-10-16T07:54:18.874Z,40.77
2018-10-16T07:56:47.111Z,72.33
2018-10-16T07:59:15.116Z,47.43
2018-10-16T08:01:43.117Z,46.93
2018-10-16T08:04:11.826Z,40.50
2018-10-16T08:06:39.813Z,44.63
2018-10-16T08:09:09.588Z,62.37
2018-10-16T08:11:40.345Z,56.50
2018-10-16T08:14:08.311Z,57.30
2018-10-16T08:16:36.433Z,61.47
2018-10-16T08:19:04.753Z,47.00
2018-10-16T08:21:32.767Z,62.47
2018-10-16T08:24:00.761Z,38.63
2018-10-16T08:26:28.770Z,51.70
2018-10-16T08:28:56.749Z,40.87
2018-10-16T08:31:24.810Z,63.13
2018-10-16T08:33:52.785Z,50.23
2018-10-16T08:36:20.945Z,38.53
2018-10-16T08:38:53.284Z,38.50
2018-10-16T08:41:24.475Z,37.77
2018-10-16T08:44:36.022Z,37.50
2018-10-16T08:47:15.645Z,38.00
2018-10-16T08:49:55.312Z,41.27
2018-10-16T08:52:23.368Z,44.57
2018-10-16T08:54:51.396Z,42.37
2018-10-16T08:57:19.493Z,59.53
2018-10-16T08:59:48.044Z,42.70
2018-10-16T09:02:16.168Z,46.60
2018-10-16T09:04:44.217Z,31.00
2018-10-16T09:07:12.194Z,37.80
2018-10-16T09:09:40.284Z,39.23
2018-10-16T09:12:08.347Z,34.70
2018-10-16T09:14:36.374Z,25.93
2018-10-16T09:17:04.367Z,35.33
2018-10-16T09:19:32.368Z,29.10
2018-10-16T09:22:00.381Z,30.53
2018-10-16T09:24:28.437Z,39.83
2018-10-16T09:26:56.373Z,35.23
2018-10-16T09:29:24.982Z,36.63
2018-10-16T09:31:52.973Z,46.07
2018-10-16T09:34:20.976Z,30.47
2018-10-16T09:36:48.978Z,35.67
2018-10-16T09:39:16.973Z,35.43
2018-10-16T09:41:44.953Z,29.30
2018-10-16T09:44:13.663Z,41.03
2018-10-16T09:46:41.649Z,40.00
2018-10-16T09:49:09.652Z,37.77
2018-10-16T09:51:37.653Z,35.20
2018-10-16T09:54:05.645Z,35.30
2018-10-16T09:56:33.681Z,37.60
2018-10-16T09:59:01.778Z,55.93
2018-10-16T10:01:35.237Z,42.83
2018-10-16T10:04:03.238Z,48.50
2018-10-16T10:06:31.216Z,35.90
2018-10-16T10:08:59.209Z,37.87
2018-10-16T10:11:27.210Z,41.40
2018-10-16T10:13:55.360Z,37.13
2018-10-16T10:16:23.333Z,37.40
2018-10-16T10:18:51.498Z,32.93
2018-10-16T10:21:19.482Z,44.77
2018-10-16T10:23:47.536Z,30.83
2018-10-16T10:26:15.562Z,40.13
2018-10-16T10:28:43.590Z,35.97
2018-10-16T10:31:11.593Z,36.57
2018-10-16T10:33:39.612Z,45.83
2018-10-16T10:36:07.686Z,33.33
2018-10-16T10:38:35.689Z,32.80
2018-10-16T10:41:03.721Z,32.63
2018-10-16T10:43:31.753Z,29.13
2018-10-16T10:45:59.989Z,38.73
2018-10-16T10:48:27.969Z,35.33
2018-10-16T10:50:56.181Z,44.50
2018-10-16T10:53:24.091Z,32.20
2018-10-16T10:55:52.079Z,33.17
2018-10-16T10:58:20.118Z,41.80
2018-10-16T11:00:48.106Z,29.97
2018-10-16T11:03:16.177Z,28.83
2018-10-16T11:05:44.135Z,35.43
2018-10-16T11:08:12.211Z,46.13
2018-10-16T11:10:40.209Z,30.93
2018-10-16T11:13:08.281Z,34.70
2018-10-16T11:15:36.304Z,47.30
2018-10-16T11:18:04.301Z,38.50
2018-10-16T11:20:32.260Z,33.03
2018-10-16T11:23:00.351Z,37.07
2018-10-16T11:25:28.358Z,32.77
2018-10-16T11:27:56.378Z,36.37
2018-10-16T11:30:24.453Z,34.03
2018-10-16T11:32:52.466Z,41.57
2018-10-16T11:35:20.470Z,36.07
2018-10-16T11:37:48.503Z,37.73
2018-10-16T11:40:16.525Z,33.37
2018-10-16T11:42:44.556Z,31.70
2018-10-16T11:45:12.616Z,36.17
2018-10-16T11:47:40.641Z,33.97
2018-10-16T11:50:10.036Z,34.13
2018-10-16T11:52:38.011Z,32.30
2018-10-16T11:55:06.706Z,29.47
2018-10-16T11:57:34.711Z,28.93
2018-10-16T12:00:02.850Z,39.17
2018-10-16T12:02:30.978Z,39.03
2018-10-16T12:04:58.900Z,39.83
2018-10-16T12:07:26.923Z,33.90
2018-10-16T12:09:55.142Z,26.57
2018-10-16T12:12:24.043Z,39.03
2018-10-16T12:14:52.057Z,27.90
2018-10-16T12:17:26.096Z,30.13
2018-10-16T12:20:00.969Z,35.13
2018-10-16T12:22:28.989Z,26.10
2018-10-16T12:24:57.094Z,30.67
2018-10-16T12:27:25.169Z,21.50
2018-10-16T12:29:53.153Z,28.40
2018-10-16T12:32:21.212Z,26.00
2018-10-16T12:34:49.165Z,22.83
2018-10-16T12:37:17.217Z,23.17
2018-10-16T12:39:45.375Z,22.73
2018-10-16T12:42:13.425Z,27.50
2018-10-16T12:44:41.349Z,25.33
2018-10-16T12:47:09.444Z,24.03
2018-10-16T12:49:37.389Z,36.43
2018-10-16T12:52:05.440Z,27.90
2018-10-16T12:54:33.465Z,24.57
2018-10-16T12:57:01.647Z,24.10
2018-10-16T12:59:29.548Z,27.63
2018-10-16T13:01:57.655Z,28.50
2018-10-16T13:04:25.682Z,25.53
2018-10-16T13:06:53.769Z,25.50
2018-10-16T13:09:21.811Z,24.10
2018-10-16T13:11:49.801Z,29.40
2018-10-16T13:14:17.955Z,37.93
2018-10-16T13:16:46.005Z,26.10
2018-10-16T13:19:13.969Z,29.73
2018-10-16T13:21:42.002Z,26.30
2018-10-16T13:24:10.031Z,31.50
2018-10-16T13:26:38.137Z,31.37
2018-10-16T13:29:06.225Z,35.50
2018-10-16T13:31:34.205Z,26.73
2018-10-16T13:34:02.275Z,28.57
2018-10-16T13:36:30.337Z,32.40
2018-10-16T13:38:58.333Z,38.47
2018-10-16T13:41:26.333Z,29.53
2018-10-16T13:43:54.375Z,26.40
2018-10-16T13:46:22.366Z,27.87
2018-10-16T13:48:50.360Z,28.20
2018-10-16T13:51:18.405Z,31.97
2018-10-16T13:53:46.384Z,26.77
2018-10-16T13:56:14.532Z,29.23
2018-10-16T13:58:42.631Z,28.53
2018-10-16T14:01:10.692Z,35.10
2018-10-16T14:03:38.689Z,25.17
2018-10-16T14:06:06.733Z,25.93
2018-10-16T14:08:34.825Z,19.30
2018-10-16T14:11:02.876Z,24.20
2018-10-16T14:13:31.708Z,26.23
2018-10-16T14:15:59.838Z,20.10
2018-10-16T14:18:27.786Z,17.10
2018-10-16T14:20:55.780Z,17.43
2018-10-16T14:23:23.865Z,20.77
2018-10-16T14:25:51.893Z,24.07
2018-10-16T14:28:19.894Z,20.20
2018-10-16T14:30:47.905Z,21.13
2018-10-16T14:33:15.914Z,23.73
2018-10-16T14:35:43.924Z,21.37
2018-10-16T14:38:11.964Z,19.10
2018-10-16T14:40:39.980Z,26.33
2018-10-16T14:43:07.956Z,27.90
2018-10-16T14:45:35.971Z,22.10
2018-10-16T14:48:04.052Z,20.63
2018-10-16T14:50:32.023Z,23.27
2018-10-16T14:53:00.017Z,24.33
2018-10-16T14:55:28.047Z,23.47
2018-10-16T14:57:56.118Z,22.20
2018-10-16T15:00:24.077Z,23.20
2018-10-16T15:02:52.131Z,27.33
2018-10-16T15:05:20.164Z,22.63
2018-10-16T15:07:48.182Z,26.47
2018-10-16T15:10:16.208Z,27.70
2018-10-16T15:12:44.260Z,26.50
2018-10-16T15:15:12.302Z,25.33
2018-10-16T15:17:40.374Z,24.73
2018-10-16T15:20:09.786Z,24.60
2018-10-16T15:22:37.742Z,26.90
2018-10-16T15:25:06.804Z,25.83
2018-10-16T15:27:34.903Z,33.93
2018-10-16T15:30:02.944Z,27.40
2018-10-16T15:32:31.022Z,31.03
2018-10-16T15:34:59.036Z,27.93
2018-10-16T15:37:27.032Z,30.83
2018-10-16T15:39:55.064Z,29.30
2018-10-16T15:42:23.273Z,25.63
2018-10-16T15:44:51.329Z,24.20
2018-10-16T15:47:19.377Z,30.97
2018-10-16T15:49:47.399Z,25.30
2018-10-16T15:52:15.594Z,26.00
2018-10-16T15:54:43.589Z,26.83
2018-10-16T15:57:11.571Z,25.73
2018-10-16T15:59:39.628Z,26.93
2018-10-16T16:02:07.667Z,26.77
2018-10-16T16:04:35.593Z,24.87
2018-10-16T16:07:03.663Z,30.93
2018-10-16T16:09:31.709Z,30.83
2018-10-16T16:11:59.765Z,32.37
2018-10-16T16:14:27.717Z,21.73
2018-10-16T16:16:55.940Z,22.40
2018-10-16T16:19:23.998Z,22.20
2018-10-16T16:21:52.053Z,27.53
2018-10-16T16:24:20.074Z,23.57
2018-10-16T16:26:48.073Z,22.87
2018-10-16T16:29:16.101Z,26.40
2018-10-16T16:31:44.185Z,22.50
2018-10-16T16:34:12.255Z,23.87
2018-10-16T16:36:40.197Z,23.80
2018-10-16T16:39:10.146Z,32.67
2018-10-16T16:41:38.148Z,24.60
2018-10-16T16:44:06.197Z,28.67
2018-10-16T16:46:34.974Z,33.03
2018-10-16T16:49:03.018Z,32.00
2018-10-16T16:51:31.164Z,28.27
2018-10-16T16:53:59.165Z,34.73
2018-10-16T16:56:27.188Z,36.77
2018-10-16T16:58:55.232Z,32.27
2018-10-16T17:01:23.203Z,48.80
2018-10-16T17:03:51.249Z,26.60
2018-10-16T17:06:19.220Z,31.20
2018-10-16T17:08:47.317Z,29.87
2018-10-16T17:11:15.354Z,32.90
2018-10-16T17:13:43.378Z,33.10
2018-10-16T17:16:11.460Z,33.03
2018-10-16T17:18:39.365Z,29.10
2018-10-16T17:21:07.386Z,31.80
2018-10-16T17:23:35.680Z,28.43
2018-10-16T17:26:04.286Z,34.00
2018-10-16T17:28:32.128Z,24.90
2018-10-16T17:31:00.594Z,26.80
2018-10-16T17:33:28.846Z,32.73
2018-10-16T17:35:56.983Z,27.67
2018-10-16T17:38:25.234Z,25.17
2018-10-16T17:40:53.605Z,33.33
2018-10-16T17:43:21.815Z,28.60
2018-10-16T17:45:50.228Z,28.57
2018-10-16T17:48:18.267Z,33.03
2018-10-16T17:50:46.321Z,32.93
2018-10-16T17:53:14.929Z,36.30
2018-10-16T17:55:43.230Z,29.67
2018-10-16T17:58:11.241Z,30.90
2018-10-16T18:00:39.252Z,36.23
2018-10-16T18:03:07.296Z,40.67
2018-10-16T18:05:35.340Z,33.33
2018-10-16T18:08:03.351Z,32.00
2018-10-16T18:10:31.332Z,31.83
2018-10-16T18:12:59.304Z,35.50
2018-10-16T18:15:27.293Z,42.10
2018-10-16T18:17:55.306Z,35.10
2018-10-16T18:20:23.350Z,37.10
2018-10-16T18:22:51.362Z,35.50
2018-10-16T18:25:19.352Z,32.70
2018-10-16T18:27:47.357Z,31.70
2018-10-16T18:30:15.362Z,33.30
2018-10-16T18:32:43.363Z,38.17
2018-10-16T18:35:11.769Z,45.60
2018-10-16T18:37:40.561Z,36.33
2018-10-16T18:40:09.658Z,38.47
2018-10-16T18:42:37.706Z,36.87
2018-10-16T18:45:07.144Z,38.97
2018-10-16T18:47:35.057Z,34.73
2018-10-16T18:50:03.106Z,36.87
2018-10-16T18:52:31.234Z,35.73
2018-10-16T18:54:59.317Z,35.23
2018-10-16T18:57:27.343Z,30.63
2018-10-16T18:59:55.463Z,35.67
2018-10-16T19:02:23.497Z,47.47
2018-10-16T19:04:51.458Z,37.57
2018-10-16T19:07:19.441Z,40.00
2018-10-16T19:09:47.428Z,38.27
2018-10-16T19:12:15.397Z,48.67
2018-10-16T19:14:43.372Z,48.23
2018-10-16T19:17:11.410Z,38.47
2018-10-16T19:19:39.411Z,38.37
2018-10-16T19:22:07.434Z,48.13
2018-10-16T19:24:35.733Z,41.30
2018-10-16T19:27:03.722Z,43.30
2018-10-16T19:29:31.682Z,37.50
2018-10-16T19:31:59.666Z,40.40
2018-10-16T19:34:27.633Z,50.30
2018-10-16T19:36:55.684Z,55.90
2018-10-16T19:39:23.852Z,40.27
2018-10-16T19:41:51.852Z,40.67
2018-10-16T19:44:19.819Z,43.13
2018-10-16T19:46:47.858Z,39.53
2018-10-16T19:49:15.951Z,39.20
2018-10-16T19:51:44.018Z,40.80
2018-10-16T19:54:11.985Z,48.23
2018-10-16T19:56:40.005Z,44.00
2018-10-16T19:59:08.036Z,47.70
2018-10-16T20:01:36.017Z,41.57
2018-10-16T20:04:04.177Z,40.10
2018-10-16T20:06:32.178Z,39.03
2018-10-16T20:09:07.916Z,37.03
2018-10-16T20:11:35.965Z,41.17
2018-10-16T20:14:08.220Z,50.50
2018-10-16T20:16:39.869Z,36.53
2018-10-16T20:19:09.036Z,44.53
2018-10-16T20:21:40.811Z,41.20
2018-10-16T20:24:17.049Z,43.73
2018-10-16T20:26:50.959Z,52.20
2018-10-16T20:29:26.210Z,38.10
2018-10-16T20:31:58.598Z,37.00
2018-10-16T20:34:26.586Z,43.93
2018-10-16T20:36:54.609Z,58.90
2018-10-16T20:39:22.609Z,38.13
2018-10-16T20:41:51.594Z,41.73
2018-10-16T20:44:19.494Z,47.53
2018-10-16T20:46:47.580Z,49.40
2018-10-16T20:49:15.825Z,44.97
2018-10-16T20:51:43.713Z,49.77
2018-10-16T20:54:11.689Z,42.13
2018-10-16T20:56:39.649Z,42.60
2018-10-16T20:59:07.705Z,41.33
2018-10-16T21:01:35.677Z,42.93
2018-10-16T21:04:03.646Z,40.60
2018-10-16T21:06:31.768Z,38.20
2018-10-16T21:08:59.597Z,45.77
2018-10-16T21:11:27.642Z,48.30
2018-10-16T21:13:55.624Z,37.57
2018-10-16T21:16:23.888Z,40.43
2018-10-16T21:18:51.947Z,42.90
2018-10-16T21:21:19.940Z,48.50
2018-10-16T21:23:47.924Z,42.53
2018-10-16T21:26:15.987Z,43.70
2018-10-16T21:28:43.964Z,41.47
2018-10-16T21:31:12.062Z,41.63
2018-10-16T21:33:40.036Z,44.60
2018-10-16T21:36:08.036Z,42.77
2018-10-16T21:38:36.326Z,40.17
2018-10-16T21:41:04.544Z,42.70
2018-10-16T21:43:32.505Z,45.17
2018-10-16T21:46:00.482Z,44.37
2018-10-16T21:48:28.557Z,37.60
2018-10-16T21:50:56.697Z,41.53
2018-10-16T21:53:24.693Z,43.00
2018-10-16T21:55:52.666Z,45.13
2018-10-16T21:58:20.640Z,43.03
2018-10-16T22:00:54.151Z,41.63
2018-10-16T22:03:22.124Z,46.97
2018-10-16T22:05:50.130Z,41.80
2018-10-16T22:08:18.133Z,39.07
2018-10-16T22:10:46.112Z,40.83
2018-10-16T22:13:14.351Z,47.20
2018-10-16T22:15:42.241Z,46.27
2018-10-16T22:18:10.298Z,44.57
2018-10-16T22:20:38.395Z,40.10
2018-10-16T22:23:06.434Z,42.87
2018-10-16T22:25:34.323Z,42.23
2018-10-16T22:28:02.382Z,45.37
2018-10-16T22:30:30.360Z,39.67
2018-10-16T22:32:58.339Z,42.93
2018-10-16T22:35:26.340Z,40.13
2018-10-16T22:37:54.312Z,40.93
2018-10-16T22:40:22.330Z,40.70
2018-10-16T22:42:50.332Z,39.57
2018-10-16T22:45:18.328Z,36.97
2018-10-16T22:47:46.312Z,39.50
2018-10-16T22:50:14.296Z,39.93
2018-10-16T22:52:42.415Z,40.03
2018-10-16T22:55:10.680Z,39.77
2018-10-16T22:57:38.792Z,38.00
2018-10-16T23:00:12.044Z,34.93
2018-10-16T23:02:40.036Z,36.57
2018-10-16T23:05:08.140Z,35.43
2018-10-16T23:07:36.066Z,41.53
2018-10-16T23:10:04.156Z,34.43
2018-10-16T23:12:32.232Z,37.00
2018-10-16T23:15:00.201Z,41.00
2018-10-16T23:17:28.176Z,36.00
2018-10-16T23:19:56.132Z,36.00
2018-10-16T23:22:24.189Z,38.80
2018-10-16T23:24:52.192Z,38.07
2018-10-16T23:27:20.920Z,36.67
2018-10-16T23:29:48.890Z,42.40
2018-10-16T23:32:16.895Z,41.20
2018-10-16T23:34:44.865Z,37.00
2018-10-16T23:37:12.869Z,40.80
2018-10-16T23:39:40.816Z,43.20
2018-10-16T23:42:08.773Z,42.03
2018-10-16T23:44:36.808Z,46.30
2018-10-16T23:47:04.833Z,42.00
2018-10-16T23:49:32.797Z,45.33
2018-10-16T23:52:00.797Z,45.93
2018-10-16T23:54:28.804Z,46.13
2018-10-16T23:56:56.788Z,44.73
2018-10-16T23:59:24.824Z,38.60
